Time;durP1;ratioP1;P1;durP2;ratioP2;P2;SDS_P1;SDS_P2;PMS_P1;PMS_P2;Temp;Humidity;BMP_temperature;BMP_pressure;BME280_temperature;BME280_humidity;BME280_pressure;Samples;Min_cycle;Max_cycle;Signal;HPM_P1;HPM_P2
2023/07/28 00:02:21;;;;;;;7.30;5.40;;;;;;;17.28;68.03;99786.38;105184;1266;97972;-83
2023/07/28 00:05:08;;;;;;;11.00;5.80;;;;;;;17.27;68.19;99786.15;105131;1270;97927;-85
2023/07/28 00:07:54;;;;;;;8.80;5.80;;;;;;;17.27;67.82;99784.40;105540;1268;101406;-84
2023/07/28 00:10:41;;;;;;;8.70;6.50;;;;;;;17.26;67.96;99783.30;105559;1268;99319;-84
2023/07/28 00:13:27;;;;;;;7.90;6.00;;;;;;;17.24;68.07;99783.93;105310;1272;99076;-83
2023/07/28 00:16:14;;;;;;;9.80;6.30;;;;;;;17.24;68.17;99781.66;105328;1267;98262;-84
2023/07/28 00:18:59;;;;;;;11.10;6.90;;;;;;;17.22;68.31;99779.52;105367;1267;98480;-85
2023/07/28 00:21:45;;;;;;;9.40;6.40;;;;;;;17.19;68.20;99779.38;105594;1269;102083;-84
2023/07/28 00:24:30;;;;;;;8.90;6.20;;;;;;;17.17;68.28;99777.38;105274;1267;99116;-83
2023/07/28 00:27:16;;;;;;;10.60;5.80;;;;;;;17.15;68.35;99772.88;105362;1270;97980;-84
2023/07/28 00:30:04;;;;;;;9.20;5.90;;;;;;;17.14;68.52;99770.36;105342;1265;98064;-84
2023/07/28 00:32:50;;;;;;;10.60;5.70;;;;;;;17.11;68.86;99769.14;105501;1267;97905;-83
2023/07/28 00:35:36;;;;;;;10.80;5.90;;;;;;;17.10;68.84;99768.44;105325;1265;103128;-83
2023/07/28 00:38:22;;;;;;;8.00;6.00;;;;;;;17.10;68.83;99763.22;105395;1268;99206;-84
2023/07/28 00:41:07;;;;;;;10.40;6.80;;;;;;;17.09;69.20;99758.27;105555;1267;99023;-85
2023/07/28 00:43:53;;;;;;;7.90;6.20;;;;;;;17.07;69.15;99756.77;105344;1268;99004;-84
2023/07/28 00:46:39;;;;;;;9.40;6.00;;;;;;;17.06;69.31;99757.52;105279;1270;99635;-84
2023/07/28 00:49:25;;;;;;;7.60;5.40;;;;;;;17.05;69.52;99764.73;105584;1268;102696;-85
2023/07/28 00:52:10;;;;;;;6.90;5.20;;;;;;;17.08;69.33;99760.38;105249;1272;99721;-84
2023/07/28 00:54:56;;;;;;;7.30;4.60;;;;;;;17.09;69.27;99756.81;105382;1273;98951;-84
2023/07/28 00:57:43;;;;;;;9.70;4.20;;;;;;;17.09;69.31;99752.85;105373;1268;97904;-82
2023/07/28 01:00:29;;;;;;;5.20;4.00;;;;;;;17.09;69.38;99742.02;105467;1270;97981;-84
2023/07/28 01:03:18;;;;;;;5.10;4.00;;;;;;;17.07;69.42;99735.30;105343;1267;101361;-84
2023/07/28 01:06:52;;;;;;;5.50;3.90;;;;;;;17.06;69.56;99732.59;105338;1269;99261;-84
2023/07/28 01:10:03;;;;;;;7.50;4.10;;;;;;;17.08;69.65;99728.28;105124;1271;98096;-83
2023/07/28 01:12:48;;;;;;;4.30;3.90;;;;;;;17.08;69.68;99729.20;105275;1266;98001;-84
2023/07/28 01:15:34;;;;;;;7.40;4.00;;;;;;;17.08;69.73;99729.73;105333;1265;98057;-84
2023/07/28 01:18:20;;;;;;;7.60;3.50;;;;;;;17.07;69.51;99730.50;105540;1271;101468;-85
2023/07/28 01:21:11;;;;;;;4.10;3.60;;;;;;;17.06;69.68;99724.30;105230;1268;99273;-83
2023/07/28 01:24:29;;;;;;;7.00;4.10;;;;;;;17.05;70.02;99724.94;105372;1269;97998;-83
2023/07/28 01:27:15;;;;;;;7.30;4.00;;;;;;;17.03;70.38;99720.91;105257;1270;97987;-84
2023/07/28 01:30:01;;;;;;;5.70;3.90;;;;;;;17.02;70.39;99719.44;105430;1270;98013;-83
2023/07/28 01:32:47;;;;;;;5.80;3.60;;;;;;;17.02;70.62;99709.80;105392;1271;101438;-84
2023/07/28 01:35:33;;;;;;;6.80;4.40;;;;;;;17.02;70.79;99711.36;105491;1268;99137;-84
2023/07/28 01:38:18;;;;;;;6.40;3.90;;;;;;;17.02;70.82;99716.73;105286;1268;99363;-83
2023/07/28 01:41:04;;;;;;;6.90;4.00;;;;;;;17.02;70.51;99716.67;105254;1271;98086;-84
2023/07/28 01:43:50;;;;;;;7.50;5.10;;;;;;;17.01;70.88;99715.73;105178;1270;98380;-84
2023/07/28 01:46:35;;;;;;;4.30;3.70;;;;;;;17.00;71.11;99711.77;105470;1267;101402;-84
2023/07/28 01:49:20;;;;;;;4.40;4.00;;;;;;;16.97;71.07;99710.00;105329;1267;100934;-85
2023/07/28 01:52:06;;;;;;;8.90;4.70;;;;;;;16.97;71.11;99708.01;105416;1266;99533;-84
2023/07/28 01:54:52;;;;;;;6.50;4.00;;;;;;;16.96;71.38;99698.91;105577;1270;98007;-83
2023/07/28 01:57:39;;;;;;;5.10;3.70;;;;;;;16.95;71.45;99698.19;105381;1268;99794;-85
2023/07/28 02:00:26;;;;;;;5.50;3.80;;;;;;;16.95;71.35;99706.52;105399;1270;101670;-83
2023/07/28 02:03:12;;;;;;;5.90;3.80;;;;;;;16.93;71.71;99712.29;105328;1270;99102;-84
2023/07/28 02:05:58;;;;;;;8.50;3.80;;;;;;;16.90;71.81;99716.02;105146;1266;99227;-83
2023/07/28 02:08:44;;;;;;;9.00;3.70;;;;;;;16.87;71.98;99724.63;105333;1273;98123;-84
2023/07/28 02:11:30;;;;;;;5.90;4.30;;;;;;;16.87;72.01;99722.64;105320;1270;97915;-83
2023/07/28 02:14:16;;;;;;;7.60;5.10;;;;;;;16.89;71.99;99723.80;105415;1268;101450;-83
2023/07/28 02:17:02;;;;;;;6.30;3.90;;;;;;;16.90;72.15;99712.17;105484;1266;99267;-84
2023/07/28 02:19:48;;;;;;;8.20;4.40;;;;;;;16.91;72.25;99705.86;105551;1268;99079;-85
2023/07/28 02:22:33;;;;;;;5.20;4.20;;;;;;;16.93;72.63;99698.54;105283;1270;97903;-83
2023/07/28 02:25:20;;;;;;;4.80;3.80;;;;;;;16.95;72.84;99693.73;105328;1267;97866;-83
2023/07/28 02:28:05;;;;;;;4.50;3.90;;;;;;;16.94;73.27;99689.95;105295;1267;101548;-84
2023/07/28 02:30:50;;;;;;;6.90;3.90;;;;;;;16.92;73.76;99689.53;105299;1266;99199;-84
2023/07/28 02:33:37;;;;;;;4.80;3.80;;;;;;;16.91;74.24;99685.35;105149;1270;99255;-84
2023/07/28 02:36:22;;;;;;;9.30;4.30;;;;;;;16.90;74.20;99691.45;105547;1273;98033;-83
2023/07/28 02:39:08;;;;;;;5.30;4.00;;;;;;;16.90;74.18;99684.76;105342;1270;98561;-83
2023/07/28 02:41:53;;;;;;;5.30;4.50;;;;;;;16.91;74.50;99680.27;105206;1270;102156;-83
2023/07/28 02:44:39;;;;;;;3.80;3.40;;;;;;;16.91;74.78;99677.14;105327;1268;99262;-83
2023/07/28 02:47:25;;;;;;;5.30;3.90;;;;;;;16.92;74.46;99676.39;105311;1268;98083;-84
2023/07/28 02:50:11;;;;;;;5.80;4.00;;;;;;;16.91;74.62;99672.58;105418;1270;97991;-83
2023/07/28 02:52:56;;;;;;;3.90;3.50;;;;;;;16.92;74.62;99673.20;105250;1266;98496;-82
2023/07/28 02:55:46;;;;;;;7.70;3.90;;;;;;;16.94;74.90;99673.34;105114;1270;102681;-84
2023/07/28 02:58:32;;;;;;;6.50;4.20;;;;;;;16.94;74.74;99671.08;105689;1269;99097;-83
2023/07/28 03:01:18;;;;;;;5.40;4.20;;;;;;;16.96;74.78;99668.77;105421;1270;98637;-83
2023/07/28 03:04:04;;;;;;;4.80;4.20;;;;;;;16.98;74.43;99674.04;105256;1268;98435;-83
2023/07/28 03:06:58;;;;;;;6.20;4.40;;;;;;;16.96;74.15;99679.96;105255;1268;98012;-83
2023/07/28 03:09:44;;;;;;;7.30;4.60;;;;;;;16.95;74.49;99675.25;105269;1268;110443;-84
2023/07/28 03:12:33;;;;;;;5.40;4.40;;;;;;;16.95;74.55;99667.18;105437;1269;100292;-84
2023/07/28 03:15:21;;;;;;;5.50;4.60;;;;;;;16.96;74.48;99666.82;105587;1268;99484;-85
2023/07/28 03:18:07;;;;;;;5.50;4.20;;;;;;;16.98;74.40;99661.42;105327;1270;98061;-85
2023/07/28 03:20:54;;;;;;;5.70;4.70;;;;;;;16.99;74.68;99658.63;105247;1270;98439;-85
2023/07/28 03:23:40;;;;;;;6.30;4.40;;;;;;;17.01;74.67;99654.58;105329;1269;101445;-84
2023/07/28 03:26:26;;;;;;;8.20;4.50;;;;;;;17.03;74.55;99652.98;105338;1268;100587;-84
2023/07/28 03:29:11;;;;;;;6.20;4.70;;;;;;;17.03;74.58;99654.02;105266;1273;97965;-85
2023/07/28 03:31:57;;;;;;;6.50;4.70;;;;;;;17.02;74.68;99653.20;105395;1269;97975;-85
2023/07/28 03:34:42;;;;;;;6.90;4.70;;;;;;;17.02;74.87;99651.14;105500;1270;98516;-85
2023/07/28 03:37:31;;;;;;;4.80;4.20;;;;;;;17.02;74.91;99650.39;105269;1268;101373;-83
2023/07/28 03:40:16;;;;;;;8.60;4.60;;;;;;;17.05;74.96;99649.23;105352;1270;99646;-85
2023/07/28 03:43:08;;;;;;;5.40;4.40;;;;;;;17.07;75.06;99650.56;105418;1271;99116;-83
2023/07/28 03:45:54;;;;;;;7.70;4.50;;;;;;;17.09;75.00;99646.20;105262;1272;98073;-84
2023/07/28 03:48:40;;;;;;;5.70;4.30;;;;;;;17.11;74.96;99646.76;105232;1268;98519;-85
2023/07/28 03:51:25;;;;;;;5.30;4.60;;;;;;;17.14;75.22;99644.85;105336;1273;101370;-84
2023/07/28 03:54:11;;;;;;;5.80;4.00;;;;;;;17.17;75.26;99639.59;105254;1270;100486;-84
2023/07/28 03:56:57;;;;;;;5.10;4.10;;;;;;;17.20;75.25;99639.41;105337;1268;98039;-83
2023/07/28 03:59:42;;;;;;;5.60;4.10;;;;;;;17.23;75.28;99638.79;105481;1267;98019;-83
2023/07/28 04:02:28;;;;;;;6.30;4.90;;;;;;;17.23;75.23;99636.52;105432;1274;98615;-85
2023/07/28 04:05:14;;;;;;;7.40;4.60;;;;;;;17.24;75.30;99638.59;105241;1267;102678;-83
2023/07/28 04:08:00;;;;;;;6.20;4.60;;;;;;;17.26;75.22;99639.95;105343;1280;99201;-84
2023/07/28 04:10:45;;;;;;;4.30;3.90;;;;;;;17.29;75.02;99640.31;105324;1270;97988;-84
2023/07/28 04:13:30;;;;;;;6.10;4.60;;;;;;;17.31;75.04;99642.23;105352;1269;97909;-83
2023/07/28 04:16:16;;;;;;;5.00;4.00;;;;;;;17.33;75.13;99641.23;105319;1269;97803;-83
2023/07/28 04:19:03;;;;;;;5.00;4.50;;;;;;;17.35;75.24;99640.21;105331;1267;102618;-83
2023/07/28 04:21:49;;;;;;;8.80;4.30;;;;;;;17.36;75.01;99636.73;105243;1267;100374;-85
2023/07/28 04:24:34;;;;;;;7.50;4.80;;;;;;;17.38;74.94;99627.48;105357;1271;97985;-85
2023/07/28 04:27:20;;;;;;;7.20;4.60;;;;;;;17.40;75.00;99622.69;105215;1273;97820;-84
2023/07/28 04:30:06;;;;;;;8.70;5.00;;;;;;;17.42;75.23;99622.28;105265;1271;99155;-84
2023/07/28 04:32:52;;;;;;;7.40;5.30;;;;;;;17.44;74.97;99621.39;105325;1268;101635;-83
2023/07/28 04:35:39;;;;;;;5.00;4.40;;;;;;;17.46;75.11;99619.08;105388;1271;99269;-84
2023/07/28 04:38:36;;;;;;;7.20;4.60;;;;;;;17.48;75.05;99613.46;105326;1270;97846;-84
2023/07/28 04:41:22;;;;;;;6.30;5.20;;;;;;;17.51;74.87;99608.81;105564;1268;98027;-84
2023/07/28 04:44:11;;;;;;;6.10;4.70;;;;;;;17.54;74.91;99604.71;105641;1267;98700;-84
2023/07/28 04:46:58;;;;;;;7.10;4.70;;;;;;;17.57;75.17;99602.54;105125;1276;101507;-83
2023/07/28 04:49:44;;;;;;;5.70;4.60;;;;;;;17.61;75.03;99600.53;105489;1271;99192;-84
2023/07/28 04:52:29;;;;;;;8.70;5.20;;;;;;;17.65;75.03;99603.33;105085;1270;99127;-84
2023/07/28 04:55:51;;;;;;;7.20;4.80;;;;;;;17.67;75.10;99607.08;104891;1277;98158;-84
2023/07/28 04:58:37;;;;;;;7.30;4.80;;;;;;;17.68;74.77;99607.73;105329;1268;98081;-83
2023/07/28 05:01:23;;;;;;;10.00;4.60;;;;;;;17.67;74.52;99608.76;105408;1271;101362;-85
2023/07/28 05:04:08;;;;;;;7.00;4.80;;;;;;;17.68;74.61;99605.30;105190;1271;99122;-83
2023/07/28 05:06:55;;;;;;;7.70;4.70;;;;;;;17.69;74.45;99605.31;105362;1271;98038;-84
2023/07/28 05:09:41;;;;;;;7.60;4.60;;;;;;;17.71;74.47;99605.96;105233;1276;97982;-84
2023/07/28 05:12:26;;;;;;;8.10;4.70;;;;;;;17.71;74.18;99611.83;105230;1267;97822;-86
2023/07/28 05:15:15;;;;;;;6.80;4.90;;;;;;;17.72;74.14;99611.41;105320;1271;102756;-84
2023/07/28 05:18:01;;;;;;;11.10;4.40;;;;;;;17.74;74.29;99604.16;105348;1269;99258;-83
2023/07/28 05:21:13;;;;;;;6.70;4.30;;;;;;;17.76;73.96;99600.39;105283;1267;98797;-84
2023/07/28 05:24:07;;;;;;;6.80;5.20;;;;;;;17.79;73.63;99599.66;105377;1268;97985;-84
2023/07/28 05:26:53;;;;;;;5.90;4.50;;;;;;;17.82;73.71;99598.54;105354;1270;98053;-84
2023/07/28 05:29:40;;;;;;;7.30;4.50;;;;;;;17.85;73.82;99596.34;105315;1271;101353;-85
2023/07/28 05:32:26;;;;;;;6.00;5.20;;;;;;;17.87;73.64;99589.92;105162;1265;99971;-83
2023/07/28 05:35:34;;;;;;;11.70;5.10;;;;;;;17.88;73.52;99590.52;105288;1269;98041;-85
2023/07/28 05:38:20;;;;;;;8.10;5.20;;;;;;;17.90;73.82;99591.30;105213;1268;98751;-84
2023/07/28 05:41:06;;;;;;;7.30;5.40;;;;;;;17.92;73.89;99590.61;105292;1271;98426;-84
2023/07/28 05:43:52;;;;;;;5.80;4.40;;;;;;;17.96;73.87;99596.33;105301;1267;102800;-85
2023/07/28 05:46:38;;;;;;;7.10;5.10;;;;;;;17.99;73.46;99595.50;105342;1270;99178;-85
2023/07/28 05:49:24;;;;;;;5.60;4.20;;;;;;;18.01;73.29;99598.27;105400;1271;98551;-84
2023/07/28 05:52:10;;;;;;;5.20;4.20;;;;;;;18.01;73.41;99602.83;105183;1268;98448;-84
2023/07/28 05:54:55;;;;;;;7.00;4.40;;;;;;;18.01;73.39;99601.10;105109;1267;98392;-84
2023/07/28 05:57:41;;;;;;;5.30;4.40;;;;;;;18.02;73.42;99607.70;105237;1267;101469;-83
2023/07/28 06:00:28;;;;;;;6.70;4.20;;;;;;;18.02;73.70;99611.23;105456;1274;99202;-84
2023/07/28 06:03:15;;;;;;;6.80;4.30;;;;;;;18.03;73.65;99607.93;105283;1267;98063;-84
2023/07/28 06:06:13;;;;;;;6.60;4.30;;;;;;;18.04;73.69;99606.32;105315;1269;99257;-85
2023/07/28 06:08:59;;;;;;;6.50;4.50;;;;;;;18.03;73.92;99604.75;105236;1270;97978;-85
2023/07/28 06:11:45;;;;;;;7.00;3.80;;;;;;;18.03;73.74;99604.73;105186;1270;102584;-82
2023/07/28 06:14:32;;;;;;;5.50;4.30;;;;;;;18.05;73.59;99602.14;105361;1270;100092;-82
2023/07/28 06:17:18;;;;;;;6.20;3.50;;;;;;;18.04;73.72;99605.98;105389;1273;98076;-84
2023/07/28 06:20:06;;;;;;;5.90;3.80;;;;;;;17.98;74.10;99606.70;105253;1267;98045;-84
2023/07/28 06:22:51;;;;;;;6.50;4.60;;;;;;;17.92;75.40;99601.98;105388;1270;99671;-83
2023/07/28 06:25:42;;;;;;;10.70;3.70;;;;;;;17.84;76.84;99602.08;105190;1271;102823;-84
2023/07/28 06:28:27;;;;;;;6.70;3.20;;;;;;;17.76;77.88;99601.63;105232;1273;99186;-84
2023/07/28 06:31:13;;;;;;;6.20;3.60;;;;;;;17.73;78.75;99607.73;104989;1268;97943;-83
2023/07/28 06:33:59;;;;;;;4.70;3.80;;;;;;;17.68;79.70;99604.27;105325;1268;97990;-85
2023/07/28 06:36:44;;;;;;;6.10;4.20;;;;;;;17.62;80.47;99601.09;105389;1271;97887;-84
2023/07/28 06:39:30;;;;;;;7.40;3.90;;;;;;;17.59;81.21;99599.30;105284;1273;101320;-85
2023/07/28 06:42:20;;;;;;;7.10;4.30;;;;;;;17.55;81.95;99600.96;105213;1266;99991;-85
2023/07/28 06:45:09;;;;;;;4.40;3.60;;;;;;;17.54;82.66;99607.67;105354;1267;98659;-84
2023/07/28 06:47:54;;;;;;;7.30;4.30;;;;;;;17.52;83.29;99608.39;105429;1268;98014;-85
2023/07/28 06:50:40;;;;;;;6.80;3.80;;;;;;;17.51;83.75;99605.78;105205;1270;98439;-83
2023/07/28 06:53:26;;;;;;;7.40;4.40;;;;;;;17.51;84.15;99606.75;105236;1270;101364;-84
2023/07/28 06:56:11;;;;;;;6.40;4.30;;;;;;;17.49;84.43;99608.12;105337;1270;100502;-84
2023/07/28 06:58:56;;;;;;;6.70;4.50;;;;;;;17.48;84.80;99607.55;105406;1270;98116;-84
2023/07/28 07:01:42;;;;;;;6.80;4.30;;;;;;;17.49;85.13;99602.26;105542;1270;97209;-84
2023/07/28 07:04:28;;;;;;;7.90;4.30;;;;;;;17.51;85.58;99598.67;105381;1272;98003;-83
2023/07/28 07:07:13;;;;;;;6.70;4.90;;;;;;;17.53;86.01;99598.92;105442;1271;101460;-84
2023/07/28 07:09:59;;;;;;;10.40;4.50;;;;;;;17.54;86.29;99600.73;105488;1269;99253;-85
2023/07/28 07:12:44;;;;;;;6.30;4.00;;;;;;;17.54;86.60;99596.06;105579;1270;99002;-85
2023/07/28 07:15:35;;;;;;;7.50;4.60;;;;;;;17.56;86.95;99596.24;105570;1267;96598;-84
2023/07/28 07:18:22;;;;;;;6.30;4.80;;;;;;;17.58;87.46;99597.78;105501;1271;98506;-85
2023/07/28 07:21:07;;;;;;;6.50;4.50;;;;;;;17.59;87.46;99590.32;105336;1268;101498;-85
2023/07/28 07:23:53;;;;;;;7.70;5.00;;;;;;;17.60;87.73;99585.61;105633;1271;100565;-84
2023/07/28 07:26:45;;;;;;;7.30;5.20;;;;;;;17.62;88.04;99584.55;105431;1267;97985;-84
2023/07/28 07:29:30;;;;;;;7.50;4.90;;;;;;;17.65;88.53;99586.04;105250;1267;97981;-86
2023/07/28 07:32:16;;;;;;;12.60;4.60;;;;;;;17.68;88.55;99582.21;105270;1270;99596;-83
2023/07/28 07:35:03;;;;;;;9.30;5.20;;;;;;;17.74;89.05;99581.95;105250;1267;101484;-86
2023/07/28 07:37:48;;;;;;;6.30;4.80;;;;;;;17.80;89.30;99584.98;105367;1274;100029;-85
2023/07/28 07:40:35;;;;;;;6.60;5.20;;;;;;;17.83;89.32;99586.19;105254;1273;97953;-84
2023/07/28 07:43:21;;;;;;;7.70;4.90;;;;;;;17.88;89.74;99593.39;105184;1267;97880;-85
2023/07/28 07:46:07;;;;;;;6.00;5.10;;;;;;;17.91;90.31;99591.90;105285;1272;97885;-84
2023/07/28 07:48:52;;;;;;;7.80;5.60;;;;;;;17.93;90.26;99587.80;105272;1268;113698;-83
2023/07/28 07:51:38;;;;;;;8.60;5.10;;;;;;;17.93;89.78;99588.44;105366;1271;100397;-84
2023/07/28 07:54:24;;;;;;;7.10;5.10;;;;;;;17.93;90.04;99586.55;105391;1271;99165;-85
2023/07/28 07:57:09;;;;;;;7.00;4.90;;;;;;;17.92;90.12;99586.65;105570;1266;98042;-84
2023/07/28 07:59:59;;;;;;;9.50;5.20;;;;;;;17.90;90.34;99586.52;105334;1280;98873;-84
2023/07/28 08:02:44;;;;;;;6.10;5.10;;;;;;;17.88;90.78;99590.30;105343;1267;102725;-84
2023/07/28 08:05:30;;;;;;;6.40;5.00;;;;;;;17.84;90.59;99592.11;105598;1269;99750;-86
2023/07/28 08:08:19;;;;;;;10.80;5.60;;;;;;;17.82;91.23;99587.55;105529;1267;97931;-84
2023/07/28 08:11:05;;;;;;;9.50;5.40;;;;;;;17.79;91.58;99585.80;105366;1270;97952;-84
2023/07/28 08:13:51;;;;;;;7.30;5.70;;;;;;;17.75;91.57;99590.58;105496;1267;97869;-83
2023/07/28 08:16:36;;;;;;;6.80;5.30;;;;;;;17.70;91.63;99587.77;105157;1267;101528;-84
2023/07/28 08:19:22;;;;;;;11.00;5.50;;;;;;;17.67;91.92;99586.22;105513;1267;99420;-84
2023/07/28 08:22:07;;;;;;;10.00;5.30;;;;;;;17.66;92.09;99589.30;105231;1273;98483;-85
2023/07/28 08:24:53;;;;;;;10.00;5.90;;;;;;;17.63;92.28;99591.82;105311;1267;98093;-84
2023/07/28 08:27:39;;;;;;;9.20;5.80;;;;;;;17.64;92.72;99587.27;105576;1267;97975;-83
2023/07/28 08:30:25;;;;;;;7.30;6.00;;;;;;;17.65;92.84;99582.14;105567;1271;102271;-85
2023/07/28 08:33:10;;;;;;;8.60;5.50;;;;;;;17.65;92.85;99584.56;105281;1270;99107;-84
2023/07/28 08:35:56;;;;;;;8.60;5.80;;;;;;;17.65;93.27;99587.94;105427;1267;99356;-85
2023/07/28 08:38:42;;;;;;;7.20;5.60;;;;;;;17.68;93.39;99581.52;105398;1270;99152;-84
2023/07/28 08:41:27;;;;;;;11.20;6.50;;;;;;;17.74;93.79;99576.27;105505;1269;98439;-83
2023/07/28 08:44:13;;;;;;;8.30;6.30;;;;;;;17.78;93.73;99574.41;105358;1267;110272;-84
2023/07/28 08:47:04;;;;;;;9.10;5.80;;;;;;;17.82;94.03;99573.90;105373;1266;99435;-85
2023/07/28 08:49:50;;;;;;;;;;;;;;;17.85;94.05;99575.70;105283;1270;98864;-84
2023/07/28 08:52:35;;;;;;;8.40;6.30;;;;;;;17.87;94.32;99564.77;105302;1266;97978;-85
2023/07/28 08:55:21;;;;;;;13.90;6.50;;;;;;;17.94;94.88;99563.41;105337;1266;98087;-85
2023/07/28 08:58:22;;;;;;;8.10;6.00;;;;;;;18.01;95.41;99568.95;105203;1270;101445;-83
2023/07/28 09:01:08;;;;;;;8.70;6.50;;;;;;;18.07;95.08;99575.06;105378;1270;99203;-84
2023/07/28 09:03:53;;;;;;;6.30;5.60;;;;;;;18.11;94.91;99570.22;105383;1267;106465;-84
2023/07/28 09:06:44;;;;;;;7.40;6.20;;;;;;;18.15;95.19;99567.32;105176;1266;98049;-84
2023/07/28 09:09:32;;;;;;;8.50;5.90;;;;;;;18.20;95.36;99567.61;105291;1267;98022;-85
2023/07/28 09:12:17;;;;;;;8.10;6.30;;;;;;;18.29;95.77;99562.03;105229;1267;103137;-83
2023/07/28 09:15:06;;;;;;;11.80;6.30;;;;;;;18.37;96.32;99566.86;105233;1273;100115;-83
2023/07/28 09:17:51;;;;;;;9.00;6.40;;;;;;;18.45;96.06;99564.01;105555;1267;99077;-84
2023/07/28 09:20:39;;;;;;;9.60;6.60;;;;;;;18.54;95.92;99565.52;105709;1270;98090;-85
2023/07/28 09:23:29;;;;;;;7.10;5.70;;;;;;;18.64;95.71;99563.30;105534;1267;98461;-84
2023/07/28 09:26:16;;;;;;;;;;;;;;;18.71;95.43;99561.59;105309;1271;101505;-86
2023/07/28 09:29:12;;;;;;;6.80;5.30;;;;;;;18.71;95.44;99560.98;105335;1267;107800;-86
2023/07/28 09:32:04;;;;;;;9.30;5.80;;;;;;;18.71;95.19;99564.95;105440;1270;99093;-86
2023/07/28 09:35:04;;;;;;;7.70;5.80;;;;;;;18.70;95.34;99562.07;105136;1267;98214;-85
2023/07/28 09:37:52;;;;;;;7.60;5.50;;;;;;;18.67;94.93;99563.79;105175;1269;97982;-85
2023/07/28 09:40:41;;;;;;;9.40;5.90;;;;;;;18.65;95.22;99565.20;105296;1267;103175;-85
2023/07/28 09:43:27;;;;;;;8.30;6.80;;;;;;;18.63;95.05;99567.24;105415;1267;99238;-85
2023/07/28 09:46:17;;;;;;;9.70;6.50;;;;;;;18.60;95.40;99564.03;105199;1267;97990;-84
2023/07/28 09:49:07;;;;;;;9.90;6.90;;;;;;;18.61;95.42;99560.29;105238;1271;98569;-84
2023/07/28 09:51:56;;;;;;;9.30;6.90;;;;;;;18.65;96.14;99554.61;105372;1270;98078;-84
2023/07/28 09:54:45;;;;;;;11.40;6.80;;;;;;;18.65;96.32;99553.86;105176;1267;101475;-85
2023/07/28 09:57:35;;;;;;;8.60;6.60;;;;;;;18.62;96.44;99553.45;105478;1267;99220;-85
2023/07/28 10:00:22;;;;;;;10.00;6.50;;;;;;;18.64;97.21;99545.94;105418;1267;97995;-84
2023/07/28 10:03:09;;;;;;;9.60;7.50;;;;;;;18.70;97.98;99539.56;105564;1270;97914;-84
2023/07/28 10:05:55;;;;;;;7.40;6.10;;;;;;;18.75;98.09;99543.17;105314;1268;99717;-86
2023/07/28 10:08:41;;;;;;;13.00;7.40;;;;;;;18.82;98.52;99544.17;105456;1270;101441;-85
2023/07/28 10:11:27;;;;;;;7.10;6.30;;;;;;;18.88;98.55;99540.60;105413;1269;99166;-84
2023/07/28 10:14:30;;;;;;;9.80;6.90;;;;;;;18.94;98.86;99540.08;105195;1272;98530;-84
2023/07/28 10:17:17;;;;;;;9.70;6.40;;;;;;;18.93;98.31;99538.98;105206;1269;99117;-85
2023/07/28 10:20:08;;;;;;;7.60;6.10;;;;;;;18.93;98.79;99536.71;105088;1267;99388;-84
2023/07/28 10:23:05;;;;;;;7.40;5.90;;;;;;;18.93;98.46;99529.44;105497;1267;101456;-85
2023/07/28 10:26:02;;;;;;;8.40;6.40;;;;;;;18.94;98.39;99532.27;105211;1268;100079;-85
2023/07/28 10:28:51;;;;;;;9.00;6.00;;;;;;;18.96;98.63;99533.64;105321;1267;97977;-84
2023/07/28 10:31:37;;;;;;;9.70;5.70;;;;;;;19.01;98.97;99526.76;105401;1267;97972;-83
2023/07/28 10:34:23;;;;;;;7.00;5.60;;;;;;;19.05;99.06;99523.77;105359;1267;98451;-84
2023/07/28 10:37:08;;;;;;;8.50;5.50;;;;;;;19.07;99.04;99524.86;105374;1270;101440;-83
2023/07/28 10:40:39;;;;;;;6.90;4.90;;;;;;;19.10;99.26;99525.36;105399;1270;100564;-84
2023/07/28 10:43:25;;;;;;;;;;;;;;;19.12;99.03;99526.17;105565;1267;99125;-84
2023/07/28 10:46:14;;;;;;;7.50;5.60;;;;;;;19.14;99.59;99523.30;105348;1270;98013;-84
2023/07/28 10:49:04;;;;;;;8.70;5.70;;;;;;;19.22;99.96;99520.77;105434;1265;99765;-83
2023/07/28 10:51:50;;;;;;;4.70;3.80;;;;;;;19.33;100.00;99521.02;105323;1267;101462;-85
2023/07/28 10:54:36;;;;;;;6.20;2.80;;;;;;;19.45;99.97;99522.40;105306;1266;99196;-84
2023/07/28 10:57:26;;;;;;;3.90;2.80;;;;;;;19.62;100.00;99520.84;105195;1272;98053;-84
2023/07/28 11:00:14;;;;;;;4.00;2.80;;;;;;;19.79;100.00;99522.80;105363;1267;98484;-86
2023/07/28 11:03:00;;;;;;;3.90;2.30;;;;;;;19.95;99.73;99522.19;105539;1266;98458;-85
2023/07/28 11:05:49;;;;;;;3.40;2.50;;;;;;;20.02;99.03;99519.58;105300;1267;101438;-85
2023/07/28 11:08:35;;;;;;;4.00;2.20;;;;;;;20.04;97.93;99522.39;105362;1268;99199;-84
2023/07/28 11:11:20;;;;;;;3.40;2.00;;;;;;;19.99;97.25;99529.52;105392;1270;97997;-86
2023/07/28 11:14:08;;;;;;;6.60;2.10;;;;;;;19.97;97.67;99523.48;105268;1266;97880;-85
2023/07/28 11:16:54;;;;;;;5.60;2.70;;;;;;;20.06;98.51;99516.84;105497;1267;98489;-85
2023/07/28 11:19:40;;;;;;;3.20;2.10;;;;;;;20.20;98.47;99511.23;105586;1267;101611;-85
2023/07/28 11:22:26;;;;;;;4.30;2.60;;;;;;;20.34;98.45;99512.61;105522;1267;99189;-84
2023/07/28 11:25:13;;;;;;;3.50;2.40;;;;;;;20.46;97.98;99511.50;105096;1273;98649;-84
2023/07/28 11:28:06;;;;;;;2.60;2.40;;;;;;;20.58;97.25;99510.05;105694;1270;98642;-85
2023/07/28 11:30:52;;;;;;;1.90;1.80;;;;;;;20.69;96.62;99505.52;105546;1267;98067;-84
2023/07/28 11:33:39;;;;;;;1.80;1.70;;;;;;;20.76;95.27;99501.13;105339;1267;101508;-85
2023/07/28 11:36:29;;;;;;;1.90;1.70;;;;;;;20.87;95.12;99501.20;105234;1270;99196;-85
2023/07/28 11:39:16;;;;;;;1.60;1.50;;;;;;;20.94;94.79;99499.15;105283;1267;98077;-86
2023/07/28 11:42:02;;;;;;;1.50;1.30;;;;;;;20.98;94.52;99498.73;105276;1267;97974;-86
2023/07/28 11:44:48;;;;;;;3.80;1.70;;;;;;;20.94;93.38;99501.10;105388;1266;98481;-85
2023/07/28 11:47:34;;;;;;;4.50;1.60;;;;;;;20.89;92.21;99497.20;105306;1267;102741;-85
2023/07/28 11:50:24;;;;;;;1.00;1.00;;;;;;;20.86;91.92;99497.16;105610;1267;99177;-85
2023/07/28 11:53:11;;;;;;;3.50;1.30;;;;;;;20.86;91.26;99498.41;105544;1265;98085;-84
2023/07/28 11:55:57;;;;;;;2.20;1.10;;;;;;;20.85;91.16;99499.73;105534;1270;97969;-85
2023/07/28 11:58:42;;;;;;;1.50;0.80;;;;;;;20.86;92.12;99506.31;105299;1267;97988;-85
2023/07/28 12:01:28;;;;;;;1.10;1.00;;;;;;;20.83;92.48;99513.52;105254;1267;102589;-85
2023/07/28 12:04:28;;;;;;;3.20;1.00;;;;;;;20.84;93.51;99507.09;105515;1267;99200;-84
2023/07/28 12:07:16;;;;;;;0.90;0.90;;;;;;;20.89;94.09;99506.79;105369;1270;97995;-85
2023/07/28 12:10:06;;;;;;;2.80;1.30;;;;;;;20.96;94.31;99507.07;105323;1267;98106;-83
2023/07/28 12:12:52;;;;;;;6.40;1.00;;;;;;;21.11;94.58;99507.67;105283;1269;97985;-85
2023/07/28 12:15:40;;;;;;;1.00;0.90;;;;;;;21.19;93.49;99511.77;105483;1267;102823;-85
2023/07/28 12:18:31;;;;;;;2.70;1.20;;;;;;;21.21;93.24;99509.23;105422;1267;100211;-84
2023/07/28 12:21:17;;;;;;;1.90;1.10;;;;;;;21.23;92.90;99508.80;105271;1267;99956;-83
2023/07/28 12:24:02;;;;;;;0.80;0.80;;;;;;;21.22;92.68;99503.02;105260;1265;97907;-84
2023/07/28 12:26:50;;;;;;;2.90;1.60;;;;;;;21.21;92.12;99510.55;105492;1266;97909;-84
2023/07/28 12:29:35;;;;;;;2.50;1.20;;;;;;;21.13;91.80;99515.71;105253;1273;101455;-84
2023/07/28 12:32:22;;;;;;;2.20;1.00;;;;;;;21.09;92.11;99515.21;105259;1265;100553;-84
2023/07/28 12:35:08;;;;;;;1.00;1.00;;;;;;;21.07;91.79;99519.90;105099;1270;98255;-84
2023/07/28 12:37:54;;;;;;;1.40;0.80;;;;;;;21.06;91.79;99523.83;105227;1265;98043;-85
2023/07/28 12:40:39;;;;;;;1.40;1.10;;;;;;;21.02;91.63;99524.42;105408;1270;99029;-86
2023/07/28 12:43:25;;;;;;;1.90;1.30;;;;;;;20.99;91.53;99527.15;105330;1267;101473;-86
2023/07/28 12:46:11;;;;;;;1.80;1.20;;;;;;;20.97;91.31;99527.77;105512;1270;100388;-86
2023/07/28 12:48:57;;;;;;;1.10;1.00;;;;;;;20.92;91.23;99528.34;105333;1270;106360;-85
2023/07/28 12:51:42;;;;;;;1.70;1.20;;;;;;;20.92;92.17;99522.18;105254;1264;97963;-86
2023/07/28 12:54:28;;;;;;;1.30;1.20;;;;;;;20.96;92.11;99519.44;105135;1267;98077;-85
2023/07/28 12:57:13;;;;;;;1.40;1.20;;;;;;;20.95;91.83;99526.84;105312;1266;101431;-84